createdAt,value
2023-03-16T00:00:14.081Z,3.13
2023-03-16T00:02:42.661Z,2.57
2023-03-16T00:05:11.671Z,2.90
2023-03-16T00:07:40.173Z,4.23
2023-03-16T00:10:12.485Z,1.87
2023-03-16T00:12:43.559Z,2.13
2023-03-16T00:15:12.164Z,3.07
2023-03-16T00:17:40.641Z,3.53
2023-03-16T00:20:10.181Z,2.20
2023-03-16T00:22:38.577Z,2.77
2023-03-16T00:25:07.507Z,2.10
2023-03-16T00:27:37.381Z,2.90
2023-03-16T00:30:06.435Z,3.07
2023-03-16T00:32:35.612Z,3.23
2023-03-16T00:35:05.053Z,3.67
2023-03-16T00:37:33.935Z,3.63
2023-03-16T00:40:04.148Z,2.57
2023-03-16T00:42:34.252Z,2.23
2023-03-16T00:45:05.897Z,3.17
2023-03-16T00:47:35.133Z,2.77
2023-03-16T00:50:04.058Z,2.87
2023-03-16T00:52:32.808Z,1.80
2023-03-16T00:55:03.423Z,2.90
2023-03-16T00:57:31.944Z,3.27
2023-03-16T01:00:01.668Z,1.93
2023-03-16T01:02:31.466Z,3.07
2023-03-16T01:05:00.028Z,2.40
2023-03-16T01:07:28.428Z,3.73
2023-03-16T01:09:56.845Z,2.97
2023-03-16T01:12:25.212Z,3.67
2023-03-16T01:14:53.849Z,3.47
2023-03-16T01:17:22.522Z,3.00
2023-03-16T01:19:52.611Z,3.93
2023-03-16T01:22:21.501Z,2.60
2023-03-16T01:24:49.957Z,4.57
2023-03-16T01:27:18.364Z,2.70
2023-03-16T01:29:46.790Z,3.33
2023-03-16T01:32:15.509Z,6.23
2023-03-16T01:34:43.891Z,3.13
2023-03-16T01:37:13.881Z,2.80
2023-03-16T01:39:42.374Z,3.33
2023-03-16T01:42:11.059Z,3.23
2023-03-16T01:44:52.662Z,3.77
2023-03-16T01:47:21.087Z,3.10
2023-03-16T01:49:49.517Z,3.87
2023-03-16T01:52:21.344Z,5.80
2023-03-16T01:54:51.482Z,3.50
2023-03-16T01:57:22.040Z,4.20
2023-03-16T01:59:51.985Z,4.50
2023-03-16T02:02:21.390Z,3.63
2023-03-16T02:04:52.099Z,6.57
2023-03-16T02:07:24.822Z,3.43
2023-03-16T02:09:54.708Z,4.63
2023-03-16T02:12:23.437Z,4.20
2023-03-16T02:14:52.582Z,4.63
2023-03-16T02:17:22.091Z,4.90
2023-03-16T02:19:55.541Z,4.53
2023-03-16T02:22:25.438Z,4.87
2023-03-16T02:24:53.982Z,5.20
2023-03-16T02:27:26.265Z,4.57
2023-03-16T02:30:08.192Z,5.57
2023-03-16T02:32:37.232Z,3.77
2023-03-16T02:35:05.847Z,4.57
2023-03-16T02:37:34.980Z,7.43
2023-03-16T02:40:05.952Z,4.47
2023-03-16T02:42:34.607Z,5.17
2023-03-16T02:45:03.373Z,3.97
2023-03-16T02:47:36.017Z,4.53
2023-03-16T02:50:06.693Z,5.37
2023-03-16T02:52:35.437Z,4.83
2023-03-16T02:55:03.897Z,6.07
2023-03-16T02:57:32.803Z,4.77
2023-03-16T03:00:01.231Z,4.10
2023-03-16T03:02:29.660Z,4.60
2023-03-16T03:04:59.550Z,5.30
2023-03-16T03:07:32.024Z,4.83
2023-03-16T03:10:03.000Z,4.40
2023-03-16T03:12:31.387Z,4.07
2023-03-16T03:14:59.826Z,4.60
2023-03-16T03:17:30.273Z,5.17
2023-03-16T03:20:00.863Z,4.50
2023-03-16T03:22:29.238Z,4.40
2023-03-16T03:24:57.751Z,4.93
2023-03-16T03:27:26.166Z,4.53
2023-03-16T03:29:54.560Z,4.63
2023-03-16T03:32:23.171Z,4.23
2023-03-16T03:34:51.646Z,4.80
2023-03-16T03:37:21.513Z,4.63
2023-03-16T03:39:50.045Z,4.23
2023-03-16T03:42:18.459Z,5.10
2023-03-16T03:44:46.851Z,4.73
2023-03-16T03:47:15.233Z,6.17
2023-03-16T03:49:43.654Z,4.43
2023-03-16T03:52:12.204Z,5.60
2023-03-16T03:54:41.948Z,5.20
2023-03-16T03:57:10.482Z,5.67
2023-03-16T03:59:43.624Z,6.27
2023-03-16T04:02:12.256Z,5.13
2023-03-16T04:04:41.088Z,4.73
2023-03-16T04:07:09.996Z,5.43
2023-03-16T04:09:38.461Z,5.33
2023-03-16T04:12:08.594Z,4.87
2023-03-16T04:14:36.992Z,6.43
2023-03-16T04:17:05.762Z,5.40
2023-03-16T04:19:34.220Z,6.53
2023-03-16T04:22:02.630Z,4.47
2023-03-16T04:24:34.585Z,4.93
2023-03-16T04:27:03.635Z,5.17
2023-03-16T04:29:33.520Z,5.10
2023-03-16T04:32:01.935Z,5.17
2023-03-16T04:34:30.445Z,6.33
2023-03-16T04:36:58.981Z,5.33
2023-03-16T04:39:27.479Z,5.40
2023-03-16T04:41:55.968Z,5.90
2023-03-16T04:44:25.878Z,5.03
2023-03-16T04:46:55.751Z,6.67
2023-03-16T04:49:24.833Z,6.87
2023-03-16T04:51:53.209Z,5.17
2023-03-16T04:54:21.636Z,5.97
2023-03-16T04:56:50.016Z,5.70
2023-03-16T04:59:18.402Z,5.97
2023-03-16T05:01:46.862Z,6.50
2023-03-16T05:04:19.712Z,5.37
2023-03-16T05:06:48.310Z,5.20
2023-03-16T05:09:16.736Z,4.77
2023-03-16T05:11:45.240Z,7.13
2023-03-16T05:14:13.656Z,5.20
2023-03-16T05:16:42.703Z,4.93
2023-03-16T05:19:11.100Z,5.93
2023-03-16T05:21:40.910Z,5.43
2023-03-16T05:24:09.906Z,4.80
2023-03-16T05:26:38.319Z,4.63
2023-03-16T05:29:07.047Z,5.57
2023-03-16T05:31:37.245Z,5.27
2023-03-16T05:34:06.222Z,5.77
2023-03-16T05:36:35.984Z,4.30
2023-03-16T05:39:08.421Z,5.07
2023-03-16T05:41:36.865Z,4.87
2023-03-16T05:44:05.713Z,4.33
2023-03-16T05:46:34.479Z,4.20
2023-03-16T05:49:02.920Z,5.10
2023-03-16T05:51:32.038Z,7.17
2023-03-16T05:54:00.429Z,4.83
2023-03-16T05:56:30.914Z,5.00
2023-03-16T05:59:00.344Z,5.67
2023-03-16T06:01:28.728Z,4.97
2023-03-16T06:03:57.165Z,5.60
2023-03-16T06:06:25.580Z,4.73
2023-03-16T06:08:53.966Z,4.83
2023-03-16T06:11:22.475Z,3.90
2023-03-16T06:13:52.235Z,5.53
2023-03-16T06:16:20.869Z,6.93
2023-03-16T06:18:49.335Z,5.47
2023-03-16T06:21:17.737Z,5.67
2023-03-16T06:23:46.190Z,4.93
2023-03-16T06:26:14.934Z,4.83
2023-03-16T06:28:43.335Z,4.00
2023-03-16T06:31:14.072Z,4.03
2023-03-16T06:33:42.636Z,5.00
2023-03-16T06:36:11.866Z,4.90
2023-03-16T06:38:43.106Z,5.90
2023-03-16T06:41:11.564Z,4.73
2023-03-16T06:43:40.362Z,4.63
2023-03-16T06:46:08.896Z,5.23
2023-03-16T06:48:38.684Z,4.10
2023-03-16T06:51:07.734Z,6.80
2023-03-16T06:53:36.167Z,4.97
2023-03-16T06:56:04.901Z,6.30
2023-03-16T06:58:33.279Z,4.60
2023-03-16T07:01:03.626Z,3.77
2023-03-16T07:03:32.438Z,5.33
2023-03-16T07:06:02.204Z,4.63
2023-03-16T07:08:30.600Z,5.63
2023-03-16T07:10:59.261Z,4.93
2023-03-16T07:13:27.700Z,4.83
2023-03-16T07:15:56.073Z,4.20
2023-03-16T07:18:26.030Z,5.07
2023-03-16T07:20:54.813Z,5.03
2023-03-16T07:23:24.920Z,5.00
2023-03-16T07:25:53.403Z,3.47
2023-03-16T07:28:23.297Z,4.40
2023-03-16T07:31:03.404Z,3.93
2023-03-16T07:33:33.313Z,4.03
2023-03-16T07:36:04.239Z,4.40
2023-03-16T07:38:34.776Z,2.97
2023-03-16T07:41:03.297Z,3.00
2023-03-16T07:43:31.703Z,3.90
2023-03-16T07:46:01.321Z,4.40
2023-03-16T07:48:29.917Z,4.10
2023-03-16T07:50:58.310Z,3.73
2023-03-16T07:53:26.750Z,5.23
2023-03-16T07:55:57.365Z,4.90
2023-03-16T07:58:26.043Z,5.30
2023-03-16T08:00:54.468Z,4.53
2023-03-16T08:03:22.912Z,2.53
2023-03-16T08:05:51.462Z,4.90
2023-03-16T08:08:20.317Z,5.10
2023-03-16T08:10:49.302Z,4.33
2023-03-16T08:13:19.068Z,2.47
2023-03-16T08:15:48.416Z,4.40
2023-03-16T08:18:17.164Z,2.07
2023-03-16T08:20:45.673Z,1.93
2023-03-16T08:23:15.580Z,1.97
2023-03-16T08:25:44.365Z,1.93
2023-03-16T08:28:12.983Z,2.40
2023-03-16T08:30:48.172Z,6.13
2023-03-16T08:33:18.000Z,1.63
2023-03-16T08:35:46.763Z,2.13
2023-03-16T08:38:16.022Z,1.83
2023-03-16T08:40:48.514Z,2.00
2023-03-16T08:43:17.389Z,1.83
2023-03-16T08:45:48.447Z,3.10
2023-03-16T08:48:18.361Z,1.70
2023-03-16T08:50:47.078Z,1.60
2023-03-16T08:53:16.123Z,3.37
2023-03-16T08:55:45.132Z,1.70
2023-03-16T08:58:14.063Z,4.27
2023-03-16T09:00:44.864Z,2.10
2023-03-16T09:03:15.938Z,2.17
2023-03-16T09:05:44.359Z,1.77
2023-03-16T09:08:12.744Z,1.40
2023-03-16T09:10:41.696Z,2.33
2023-03-16T09:13:10.102Z,1.50
2023-03-16T09:15:38.950Z,1.80
2023-03-16T09:18:07.471Z,3.63
2023-03-16T09:20:37.796Z,1.43
2023-03-16T09:23:06.368Z,1.63
2023-03-16T09:25:34.809Z,3.40
2023-03-16T09:28:03.174Z,3.60
2023-03-16T09:30:32.094Z,2.63
2023-03-16T09:33:01.063Z,1.97
2023-03-16T09:35:30.133Z,1.50
2023-03-16T09:38:07.356Z,3.63
2023-03-16T09:40:36.889Z,2.33
2023-03-16T09:43:22.935Z,2.13
2023-03-16T09:45:54.889Z,1.40
2023-03-16T09:48:25.243Z,3.40
2023-03-16T09:50:56.009Z,2.60
2023-03-16T09:53:27.242Z,2.17
2023-03-16T09:55:57.055Z,1.93
2023-03-16T09:58:25.800Z,1.43
2023-03-16T10:00:57.580Z,1.60
2023-03-16T10:03:32.009Z,1.50
2023-03-16T10:06:02.134Z,1.67
2023-03-16T10:08:34.639Z,4.47
2023-03-16T10:11:12.758Z,1.80
2023-03-16T10:13:43.945Z,1.63
2023-03-16T10:16:15.555Z,2.07
2023-03-16T10:18:46.025Z,1.40
2023-03-16T10:21:16.955Z,1.90
2023-03-16T10:23:48.678Z,1.57
2023-03-16T10:26:19.889Z,1.60
2023-03-16T10:28:48.325Z,1.50
2023-03-16T10:31:18.700Z,2.57
2023-03-16T10:33:47.194Z,1.63
2023-03-16T10:36:17.461Z,2.43
2023-03-16T10:38:49.419Z,1.83
2023-03-16T10:41:25.832Z,2.60
2023-03-16T10:43:55.541Z,1.30
2023-03-16T10:46:24.980Z,2.83
2023-03-16T10:48:54.719Z,1.40
2023-03-16T10:51:25.392Z,1.40
2023-03-16T10:53:57.122Z,2.87
2023-03-16T10:56:27.462Z,1.20
2023-03-16T10:58:56.323Z,1.40
2023-03-16T11:01:27.153Z,3.93
2023-03-16T11:03:57.197Z,1.30
2023-03-16T11:06:26.533Z,1.57
2023-03-16T11:08:57.364Z,1.50
2023-03-16T11:11:27.810Z,1.50
2023-03-16T11:13:59.654Z,1.63
2023-03-16T11:16:31.623Z,1.43
2023-03-16T11:19:00.984Z,1.50
2023-03-16T11:21:39.706Z,1.70
2023-03-16T11:24:17.134Z,1.67
2023-03-16T11:26:48.848Z,1.50
2023-03-16T11:29:21.346Z,1.50
2023-03-16T11:31:53.426Z,2.67
2023-03-16T11:34:24.212Z,2.00
2023-03-16T11:36:55.980Z,2.60
2023-03-16T11:39:40.359Z,2.67
2023-03-16T11:42:18.031Z,1.30
2023-03-16T11:44:51.553Z,1.30
2023-03-16T11:47:31.318Z,1.00
2023-03-16T11:50:02.924Z,1.30
2023-03-16T11:52:37.681Z,2.77
2023-03-16T11:55:13.156Z,1.57
2023-03-16T11:57:51.260Z,1.80
2023-03-16T12:00:24.649Z,1.77
2023-03-16T12:02:58.982Z,1.30
2023-03-16T12:05:39.758Z,3.07
2023-03-16T12:08:16.952Z,1.70
2023-03-16T12:10:50.727Z,1.17
2023-03-16T12:13:30.448Z,1.70
2023-03-16T12:16:01.770Z,2.27
2023-03-16T12:18:35.606Z,1.30
2023-03-16T12:21:07.249Z,1.73
2023-03-16T12:23:36.905Z,2.13
2023-03-16T12:26:06.786Z,2.10
2023-03-16T12:28:35.167Z,2.60
2023-03-16T12:31:10.047Z,2.53
2023-03-16T12:33:45.164Z,3.33
2023-03-16T12:36:26.496Z,1.67
2023-03-16T12:38:58.215Z,1.53
2023-03-16T12:41:32.163Z,1.97
2023-03-16T12:44:08.928Z,2.00
2023-03-16T12:46:41.633Z,1.60
2023-03-16T12:49:11.124Z,1.90
2023-03-16T12:51:41.499Z,2.27
2023-03-16T12:54:20.973Z,1.73
2023-03-16T12:56:51.934Z,1.67
2023-03-16T12:59:21.428Z,1.60
2023-03-16T13:01:52.102Z,1.90
2023-03-16T13:04:21.642Z,2.17
2023-03-16T13:06:51.685Z,2.33
2023-03-16T13:09:22.007Z,1.53
2023-03-16T13:11:53.393Z,2.47
2023-03-16T13:14:40.502Z,1.33
2023-03-16T13:17:24.450Z,2.23
2023-03-16T13:20:30.873Z,2.07
2023-03-16T13:23:10.911Z,1.60
2023-03-16T13:25:44.020Z,2.07
2023-03-16T13:28:17.110Z,3.87
2023-03-16T13:30:47.189Z,3.17
2023-03-16T13:33:20.785Z,2.60
2023-03-16T13:35:51.155Z,2.63
2023-03-16T13:38:20.698Z,2.37
2023-03-16T13:40:49.895Z,2.10
2023-03-16T13:43:20.859Z,1.70
2023-03-16T13:45:50.670Z,2.33
2023-03-16T13:48:19.620Z,2.03
2023-03-16T13:50:52.644Z,1.40
2023-03-16T13:53:23.621Z,3.93
2023-03-16T13:55:53.719Z,1.90
2023-03-16T13:58:28.098Z,1.40
2023-03-16T14:00:58.278Z,2.40
2023-03-16T14:03:33.015Z,2.90
2023-03-16T14:06:02.287Z,2.03
2023-03-16T14:08:31.351Z,1.50
2023-03-16T14:11:01.450Z,2.27
2023-03-16T14:13:39.253Z,1.70
2023-03-16T14:16:12.872Z,2.30
2023-03-16T14:18:42.443Z,2.23
2023-03-16T14:21:11.995Z,3.10
2023-03-16T14:23:42.334Z,2.40
2023-03-16T14:26:13.887Z,1.60
2023-03-16T14:28:55.545Z,2.77
2023-03-16T14:31:24.008Z,1.93
2023-03-16T14:34:01.444Z,1.20
2023-03-16T14:36:36.280Z,2.63
2023-03-16T14:39:12.264Z,1.97
2023-03-16T14:41:40.866Z,1.10
2023-03-16T14:44:19.256Z,1.30
2023-03-16T14:46:47.747Z,1.10
2023-03-16T14:49:21.456Z,1.23
2023-03-16T14:51:51.113Z,1.23
2023-03-16T14:54:21.847Z,1.00
2023-03-16T14:56:51.036Z,1.20
2023-03-16T14:59:21.331Z,1.57
2023-03-16T15:01:50.905Z,1.60
2023-03-16T15:04:21.108Z,3.33
2023-03-16T15:06:49.511Z,2.83
2023-03-16T15:09:27.970Z,1.47
2023-03-16T15:11:58.025Z,1.27
2023-03-16T15:14:45.659Z,1.10
2023-03-16T15:17:14.048Z,1.00
2023-03-16T15:19:43.002Z,1.60
2023-03-16T15:22:13.212Z,1.33
2023-03-16T15:24:41.756Z,1.27
2023-03-16T15:27:19.713Z,2.23
2023-03-16T15:29:49.499Z,1.33
2023-03-16T15:32:18.006Z,2.43
2023-03-16T15:34:47.066Z,1.80
2023-03-16T15:37:16.391Z,1.47
2023-03-16T15:39:46.157Z,1.23
2023-03-16T15:42:16.611Z,2.67
2023-03-16T15:44:45.098Z,1.10
2023-03-16T15:47:15.431Z,1.80
2023-03-16T15:49:48.104Z,1.20
2023-03-16T15:52:22.878Z,1.10
2023-03-16T15:54:51.349Z,1.20
2023-03-16T15:57:19.782Z,1.43
2023-03-16T15:59:48.947Z,1.37
2023-03-16T16:02:27.621Z,1.40
2023-03-16T16:04:56.206Z,1.63
2023-03-16T16:07:24.683Z,1.37
2023-03-16T16:09:53.153Z,1.40
2023-03-16T16:12:26.802Z,1.60
2023-03-16T16:14:56.774Z,1.30
2023-03-16T16:17:43.816Z,1.20
2023-03-16T16:20:20.487Z,3.10
2023-03-16T16:22:49.173Z,0.93
2023-03-16T16:25:17.600Z,1.50
2023-03-16T16:27:46.907Z,3.17
2023-03-16T16:30:24.140Z,2.57
2023-03-16T16:32:55.037Z,1.33
2023-03-16T16:35:25.154Z,1.50
2023-03-16T16:37:54.182Z,2.13
2023-03-16T16:40:23.503Z,5.10
2023-03-16T16:42:52.991Z,1.33
2023-03-16T16:45:22.356Z,1.20
2023-03-16T16:47:52.319Z,1.10
2023-03-16T16:50:23.654Z,1.67
2023-03-16T16:52:53.001Z,1.20
2023-03-16T16:55:21.676Z,1.10
2023-03-16T16:57:50.460Z,1.20
2023-03-16T17:00:20.320Z,2.00
2023-03-16T17:02:50.901Z,1.40
2023-03-16T17:05:21.546Z,1.80
2023-03-16T17:07:51.686Z,1.87
2023-03-16T17:10:21.393Z,1.13
2023-03-16T17:12:50.184Z,1.80
2023-03-16T17:15:29.835Z,2.10
2023-03-16T17:18:01.188Z,1.40
2023-03-16T17:20:30.092Z,3.40
2023-03-16T17:23:00.259Z,2.47
2023-03-16T17:25:30.340Z,1.50
2023-03-16T17:27:59.339Z,1.13
2023-03-16T17:30:28.784Z,1.53
2023-03-16T17:32:58.996Z,2.60
2023-03-16T17:35:27.579Z,1.30
2023-03-16T17:37:56.849Z,1.43
2023-03-16T17:40:26.973Z,1.13
2023-03-16T17:42:56.548Z,1.40
2023-03-16T17:45:26.759Z,2.97
2023-03-16T17:47:55.843Z,1.70
2023-03-16T17:50:25.787Z,2.00
2023-03-16T17:52:54.412Z,3.50
2023-03-16T17:55:24.540Z,2.53
2023-03-16T17:57:55.036Z,1.80
2023-03-16T18:00:26.008Z,2.87
2023-03-16T18:02:55.699Z,2.73
2023-03-16T18:05:25.340Z,1.77
2023-03-16T18:07:54.235Z,3.63
2023-03-16T18:10:24.460Z,2.20
2023-03-16T18:12:57.937Z,3.00
2023-03-16T18:15:29.280Z,2.30
2023-03-16T18:17:57.813Z,2.70
2023-03-16T18:20:30.854Z,2.93
2023-03-16T18:23:00.178Z,4.80
2023-03-16T18:25:36.351Z,3.37
2023-03-16T18:28:06.610Z,3.37
2023-03-16T18:30:35.987Z,2.90
2023-03-16T18:33:05.237Z,3.27
2023-03-16T18:35:33.773Z,2.60
2023-03-16T18:38:02.502Z,2.57
2023-03-16T18:40:31.671Z,3.30
2023-03-16T18:43:00.126Z,3.93
2023-03-16T18:45:30.382Z,3.50
2023-03-16T18:47:59.040Z,2.83
2023-03-16T18:50:30.258Z,2.47
2023-03-16T18:52:59.370Z,2.40
2023-03-16T18:55:29.374Z,2.77
2023-03-16T18:57:58.675Z,2.80
2023-03-16T19:00:29.723Z,2.80
2023-03-16T19:03:01.420Z,3.70
2023-03-16T19:05:31.965Z,3.93
2023-03-16T19:08:00.807Z,2.47
2023-03-16T19:10:31.812Z,2.73
2023-03-16T19:13:00.846Z,4.17
2023-03-16T19:15:30.597Z,2.40
2023-03-16T19:18:00.683Z,3.97
2023-03-16T19:20:30.436Z,2.67
2023-03-16T19:23:01.724Z,4.50
2023-03-16T19:25:31.672Z,2.83
2023-03-16T19:28:01.176Z,4.63
2023-03-16T19:30:30.352Z,3.53
2023-03-16T19:33:00.388Z,5.57
2023-03-16T19:35:48.552Z,3.60
2023-03-16T19:38:18.704Z,3.97
2023-03-16T19:40:48.713Z,5.00
2023-03-16T19:43:18.726Z,2.87
2023-03-16T19:45:47.811Z,4.37
2023-03-16T19:48:20.413Z,3.50
2023-03-16T19:50:49.276Z,5.07
2023-03-16T19:53:18.812Z,3.07
2023-03-16T19:55:48.114Z,4.03
2023-03-16T19:58:29.607Z,3.77
2023-03-16T20:00:58.963Z,3.67
2023-03-16T20:03:28.840Z,2.83
2023-03-16T20:05:57.296Z,3.90
2023-03-16T20:08:26.528Z,5.37
2023-03-16T20:10:56.262Z,4.60
2023-03-16T20:13:25.629Z,4.27
2023-03-16T20:15:54.401Z,4.37
2023-03-16T20:18:23.615Z,3.20
2023-03-16T20:20:53.445Z,2.60
2023-03-16T20:23:23.273Z,2.33
2023-03-16T20:25:52.165Z,3.03
2023-03-16T20:28:22.439Z,3.27
2023-03-16T20:30:51.747Z,2.10
2023-03-16T20:33:22.699Z,2.00
2023-03-16T20:35:54.487Z,2.50
2023-03-16T20:38:23.922Z,1.90
2023-03-16T20:40:53.454Z,2.00
2023-03-16T20:43:26.306Z,2.10
2023-03-16T20:45:55.512Z,1.90
2023-03-16T20:48:25.454Z,1.90
2023-03-16T20:50:56.215Z,2.93
2023-03-16T20:53:24.902Z,2.40
2023-03-16T20:55:54.544Z,1.87
2023-03-16T20:58:25.243Z,2.57
2023-03-16T21:00:57.428Z,1.80
2023-03-16T21:03:27.624Z,2.30
2023-03-16T21:06:00.049Z,1.80
2023-03-16T21:08:28.613Z,2.10
2023-03-16T21:10:59.824Z,1.77
2023-03-16T21:13:31.299Z,1.70
2023-03-16T21:16:01.439Z,2.07
2023-03-16T21:18:30.551Z,2.07
2023-03-16T21:21:00.534Z,2.57
2023-03-16T21:23:28.948Z,2.37
2023-03-16T21:25:58.716Z,1.70
2023-03-16T21:28:27.785Z,2.20
2023-03-16T21:30:57.431Z,1.70
2023-03-16T21:33:29.875Z,2.17
2023-03-16T21:36:00.293Z,2.13
2023-03-16T21:38:30.177Z,1.60
2023-03-16T21:40:58.638Z,1.57
2023-03-16T21:43:27.467Z,1.80
2023-03-16T21:45:57.025Z,4.37
2023-03-16T21:48:27.378Z,2.00
2023-03-16T21:50:55.859Z,1.90
2023-03-16T21:53:27.219Z,2.10
2023-03-16T21:55:56.188Z,2.00
2023-03-16T21:58:25.308Z,1.70
2023-03-16T22:00:54.846Z,2.00
2023-03-16T22:03:24.784Z,2.03
2023-03-16T22:05:53.635Z,1.80
2023-03-16T22:08:23.066Z,2.07
2023-03-16T22:10:53.243Z,1.90
2023-03-16T22:13:21.616Z,2.37
2023-03-16T22:15:51.597Z,1.83
2023-03-16T22:18:38.013Z,1.90
2023-03-16T22:21:20.346Z,2.60
2023-03-16T22:23:49.202Z,2.00
2023-03-16T22:26:20.978Z,1.97
2023-03-16T22:28:50.664Z,1.93
2023-03-16T22:31:21.072Z,2.33
2023-03-16T22:33:50.259Z,2.17
2023-03-16T22:36:19.673Z,1.83
2023-03-16T22:38:51.887Z,2.03
2023-03-16T22:41:21.677Z,3.07
2023-03-16T22:43:50.081Z,2.07
2023-03-16T22:46:20.352Z,2.00
2023-03-16T22:48:48.808Z,2.50
2023-03-16T22:51:23.098Z,2.47
2023-03-16T22:53:52.594Z,2.70
2023-03-16T22:56:23.188Z,2.00
2023-03-16T22:58:53.226Z,2.97
2023-03-16T23:01:23.118Z,2.70
2023-03-16T23:03:52.911Z,3.43
2023-03-16T23:06:22.536Z,2.83
2023-03-16T23:08:51.691Z,3.20
2023-03-16T23:11:23.733Z,3.63
2023-03-16T23:13:53.590Z,3.50
2023-03-16T23:16:22.917Z,4.60
2023-03-16T23:18:51.957Z,4.23
2023-03-16T23:21:21.645Z,5.43
2023-03-16T23:24:02.718Z,4.63
2023-03-16T23:26:33.868Z,6.20
2023-03-16T23:29:02.266Z,6.07
2023-03-16T23:31:31.539Z,5.33
2023-03-16T23:34:00.145Z,4.97
2023-03-16T23:36:28.867Z,4.83
2023-03-16T23:38:57.393Z,7.30
2023-03-16T23:41:26.572Z,5.80
2023-03-16T23:43:56.686Z,6.77
2023-03-16T23:46:26.098Z,7.57
2023-03-16T23:48:56.397Z,7.83
2023-03-16T23:51:26.443Z,6.13
2023-03-16T23:53:55.286Z,5.73
2023-03-16T23:56:24.059Z,6.87
2023-03-16T23:58:52.473Z,6.50
